Cave In Rock, Illinois
Current Conditions -  °F | °C
As of 6:15 PM on Monday 20 Oct 2014 (Local Time) from K5M9 Reporting Station
Scattered Clouds Scattered Clouds  
Wind Chill: 65°   Ceiling: Unl
Heat Index: 65°   Visibility: 10mi
Dew Point: 54°   Wind: 6mph
Humidity: 67%   Direction: 240°WSW
Pressure: 29.94"   Gusts: NA
Location:  37.47°N, 88.17°W
Report Text: K5M9 202315Z AUTO 24005KT 10SM SCT049 19/12 A2994 RMK AO2 T01850123
Loading
Personal Weather Stations






























Interactive Weather Map
Tropical Storm Tracking
New forecast layout! Learn more

10-Day Weather Forecast

Advertisements
Track Severe Weather on mobile